sensor_id;sensor_type;location;lat;lon;timestamp;temperature;humidity
22098;DHT22;11215;51.938;8.464;2022-07-30T00:01:49;22.30;62.90
22098;DHT22;11215;51.938;8.464;2022-07-30T00:04:16;22.30;62.90
22098;DHT22;11215;51.938;8.464;2022-07-30T00:06:41;22.20;62.90
22098;DHT22;11215;51.938;8.464;2022-07-30T00:09:07;22.20;62.90
22098;DHT22;11215;51.938;8.464;2022-07-30T00:11:33;22.20;63.00
22098;DHT22;11215;51.938;8.464;2022-07-30T00:13:59;22.20;63.00
22098;DHT22;11215;51.938;8.464;2022-07-30T00:16:24;22.20;63.00
22098;DHT22;11215;51.938;8.464;2022-07-30T00:18:50;22.20;63.10
22098;DHT22;11215;51.938;8.464;2022-07-30T00:21:16;22.20;63.30
22098;DHT22;11215;51.938;8.464;2022-07-30T00:23:41;22.20;63.00
22098;DHT22;11215;51.938;8.464;2022-07-30T00:26:07;22.20;62.90
22098;DHT22;11215;51.938;8.464;2022-07-30T00:28:33;22.20;62.80
22098;DHT22;11215;51.938;8.464;2022-07-30T00:30:59;22.20;63.00
22098;DHT22;11215;51.938;8.464;2022-07-30T00:33:25;22.10;63.10
22098;DHT22;11215;51.938;8.464;2022-07-30T00:35:51;22.10;63.20
22098;DHT22;11215;51.938;8.464;2022-07-30T00:38:17;22.10;63.40
22098;DHT22;11215;51.938;8.464;2022-07-30T00:40:42;22.00;63.30
22098;DHT22;11215;51.938;8.464;2022-07-30T00:43:14;22.10;63.40
22098;DHT22;11215;51.938;8.464;2022-07-30T00:45:41;22.00;63.50
22098;DHT22;11215;51.938;8.464;2022-07-30T00:48:06;22.00;63.20
22098;DHT22;11215;51.938;8.464;2022-07-30T00:50:32;22.00;63.10
22098;DHT22;11215;51.938;8.464;2022-07-30T00:52:58;21.90;63.10
22098;DHT22;11215;51.938;8.464;2022-07-30T00:55:24;21.90;63.50
22098;DHT22;11215;51.938;8.464;2022-07-30T00:57:49;21.90;63.60
22098;DHT22;11215;51.938;8.464;2022-07-30T01:00:16;21.90;63.80
22098;DHT22;11215;51.938;8.464;2022-07-30T01:02:42;21.80;64.00
22098;DHT22;11215;51.938;8.464;2022-07-30T01:05:08;21.80;64.20
22098;DHT22;11215;51.938;8.464;2022-07-30T01:07:34;21.80;64.30
22098;DHT22;11215;51.938;8.464;2022-07-30T01:10:00;21.80;64.40
22098;DHT22;11215;51.938;8.464;2022-07-30T01:12:26;21.80;64.50
22098;DHT22;11215;51.938;8.464;2022-07-30T01:14:55;21.80;64.60
22098;DHT22;11215;51.938;8.464;2022-07-30T01:17:21;21.80;64.90
22098;DHT22;11215;51.938;8.464;2022-07-30T01:19:47;21.80;64.70
22098;DHT22;11215;51.938;8.464;2022-07-30T01:27:29;21.80;64.80
22098;DHT22;11215;51.938;8.464;2022-07-30T01:29:57;21.80;64.60
22098;DHT22;11215;51.938;8.464;2022-07-30T01:32:25;21.80;64.70
22098;DHT22;11215;51.938;8.464;2022-07-30T01:34:51;21.80;64.60
22098;DHT22;11215;51.938;8.464;2022-07-30T01:37:19;21.80;64.60
22098;DHT22;11215;51.938;8.464;2022-07-30T01:39:45;21.80;64.60
22098;DHT22;11215;51.938;8.464;2022-07-30T01:42:12;21.80;64.50
22098;DHT22;11215;51.938;8.464;2022-07-30T01:44:39;21.80;64.60
22098;DHT22;11215;51.938;8.464;2022-07-30T01:47:07;21.80;64.70
22098;DHT22;11215;51.938;8.464;2022-07-30T01:49:34;21.80;64.70
22098;DHT22;11215;51.938;8.464;2022-07-30T01:52:02;21.80;64.60
22098;DHT22;11215;51.938;8.464;2022-07-30T01:54:29;21.80;64.70
22098;DHT22;11215;51.938;8.464;2022-07-30T01:56:58;21.80;64.60
22098;DHT22;11215;51.938;8.464;2022-07-30T01:59:27;21.80;64.50
22098;DHT22;11215;51.938;8.464;2022-07-30T02:01:54;21.80;64.60
22098;DHT22;11215;51.938;8.464;2022-07-30T02:04:20;21.80;64.40
22098;DHT22;11215;51.938;8.464;2022-07-30T02:06:52;21.80;64.50
22098;DHT22;11215;51.938;8.464;2022-07-30T02:09:23;21.70;65.10
22098;DHT22;11215;51.938;8.464;2022-07-30T02:11:54;21.70;65.30
22098;DHT22;11215;51.938;8.464;2022-07-30T02:14:52;21.70;65.00
22098;DHT22;11215;51.938;8.464;2022-07-30T02:17:29;21.70;66.00
22098;DHT22;11215;51.938;8.464;2022-07-30T02:19:58;21.70;65.90
22098;DHT22;11215;51.938;8.464;2022-07-30T02:22:25;21.70;65.30
22098;DHT22;11215;51.938;8.464;2022-07-30T02:24:55;21.60;65.10
22098;DHT22;11215;51.938;8.464;2022-07-30T02:27:27;21.70;65.30
22098;DHT22;11215;51.938;8.464;2022-07-30T02:29:56;21.60;65.50
22098;DHT22;11215;51.938;8.464;2022-07-30T02:32:23;21.60;65.30
22098;DHT22;11215;51.938;8.464;2022-07-30T02:34:54;21.60;65.50
22098;DHT22;11215;51.938;8.464;2022-07-30T02:37:21;21.60;65.60
22098;DHT22;11215;51.938;8.464;2022-07-30T02:39:50;21.60;65.30
22098;DHT22;11215;51.938;8.464;2022-07-30T02:42:18;21.60;65.30
22098;DHT22;11215;51.938;8.464;2022-07-30T02:44:45;21.60;65.30
22098;DHT22;11215;51.938;8.464;2022-07-30T02:47:13;21.60;65.30
22098;DHT22;11215;51.938;8.464;2022-07-30T02:49:41;21.60;65.30
22098;DHT22;11215;51.938;8.464;2022-07-30T02:52:08;21.60;65.50
22098;DHT22;11215;51.938;8.464;2022-07-30T02:54:38;21.50;65.40
22098;DHT22;11215;51.938;8.464;2022-07-30T02:57:06;21.50;65.60
22098;DHT22;11215;51.938;8.464;2022-07-30T02:59:35;21.50;65.60
22098;DHT22;11215;51.938;8.464;2022-07-30T03:02:02;21.50;65.70
22098;DHT22;11215;51.938;8.464;2022-07-30T03:04:30;21.50;65.60
22098;DHT22;11215;51.938;8.464;2022-07-30T03:06:58;21.50;65.80
22098;DHT22;11215;51.938;8.464;2022-07-30T03:09:25;21.40;65.80
22098;DHT22;11215;51.938;8.464;2022-07-30T03:11:52;21.50;65.90
22098;DHT22;11215;51.938;8.464;2022-07-30T03:14:19;21.50;65.90
22098;DHT22;11215;51.938;8.464;2022-07-30T03:16:50;21.50;65.80
22098;DHT22;11215;51.938;8.464;2022-07-30T03:19:19;21.40;66.00
22098;DHT22;11215;51.938;8.464;2022-07-30T03:21:47;21.50;65.90
22098;DHT22;11215;51.938;8.464;2022-07-30T03:24:16;21.50;65.90
22098;DHT22;11215;51.938;8.464;2022-07-30T03:26:43;21.40;66.10
22098;DHT22;11215;51.938;8.464;2022-07-30T03:29:11;21.40;66.10
22098;DHT22;11215;51.938;8.464;2022-07-30T03:31:38;21.40;66.20
22098;DHT22;11215;51.938;8.464;2022-07-30T03:34:06;21.40;66.20
22098;DHT22;11215;51.938;8.464;2022-07-30T03:36:32;21.50;66.20
22098;DHT22;11215;51.938;8.464;2022-07-30T03:38:58;21.40;66.10
22098;DHT22;11215;51.938;8.464;2022-07-30T03:41:24;21.40;66.10
22098;DHT22;11215;51.938;8.464;2022-07-30T03:43:51;21.50;66.10
22098;DHT22;11215;51.938;8.464;2022-07-30T03:46:20;21.50;66.20
22098;DHT22;11215;51.938;8.464;2022-07-30T03:48:48;21.50;66.10
22098;DHT22;11215;51.938;8.464;2022-07-30T03:51:21;21.50;66.00
22098;DHT22;11215;51.938;8.464;2022-07-30T03:53:50;21.40;66.30
22098;DHT22;11215;51.938;8.464;2022-07-30T03:56:17;21.50;66.00
22098;DHT22;11215;51.938;8.464;2022-07-30T03:59:12;21.50;66.50
22098;DHT22;11215;51.938;8.464;2022-07-30T04:01:38;21.50;66.90
22098;DHT22;11215;51.938;8.464;2022-07-30T04:04:08;21.40;65.50
22098;DHT22;11215;51.938;8.464;2022-07-30T04:06:36;21.50;66.00
22098;DHT22;11215;51.938;8.464;2022-07-30T04:09:06;21.40;65.90
22098;DHT22;11215;51.938;8.464;2022-07-30T04:11:33;21.40;66.00
22098;DHT22;11215;51.938;8.464;2022-07-30T04:14:01;21.40;65.60
22098;DHT22;11215;51.938;8.464;2022-07-30T04:16:49;21.40;65.80
22098;DHT22;11215;51.938;8.464;2022-07-30T04:19:22;21.40;66.50
22098;DHT22;11215;51.938;8.464;2022-07-30T04:21:51;21.40;66.30
22098;DHT22;11215;51.938;8.464;2022-07-30T04:24:35;21.30;66.10
22098;DHT22;11215;51.938;8.464;2022-07-30T04:27:01;21.30;66.60
22098;DHT22;11215;51.938;8.464;2022-07-30T04:29:36;21.30;66.30
22098;DHT22;11215;51.938;8.464;2022-07-30T04:32:05;21.30;66.70
22098;DHT22;11215;51.938;8.464;2022-07-30T04:34:47;21.30;66.30
22098;DHT22;11215;51.938;8.464;2022-07-30T04:37:31;21.30;66.50
22098;DHT22;11215;51.938;8.464;2022-07-30T04:40:02;21.30;66.30
22098;DHT22;11215;51.938;8.464;2022-07-30T04:42:31;21.30;66.10
22098;DHT22;11215;51.938;8.464;2022-07-30T04:45:02;21.30;65.90
22098;DHT22;11215;51.938;8.464;2022-07-30T04:47:35;21.30;66.40
22098;DHT22;11215;51.938;8.464;2022-07-30T04:50:08;21.30;66.40
22098;DHT22;11215;51.938;8.464;2022-07-30T04:55:44;21.30;66.10
22098;DHT22;11215;51.938;8.464;2022-07-30T04:58:19;21.20;66.30
22098;DHT22;11215;51.938;8.464;2022-07-30T05:00:49;21.20;66.80
22098;DHT22;11215;51.938;8.464;2022-07-30T05:03:33;21.20;66.70
22098;DHT22;11215;51.938;8.464;2022-07-30T05:06:12;21.20;67.10
22098;DHT22;11215;51.938;8.464;2022-07-30T05:08:41;21.20;66.80
22098;DHT22;11215;51.938;8.464;2022-07-30T05:11:28;21.20;66.90
22098;DHT22;11215;51.938;8.464;2022-07-30T05:14:13;21.20;67.30
22098;DHT22;11215;51.938;8.464;2022-07-30T05:16:39;21.30;67.80
22098;DHT22;11215;51.938;8.464;2022-07-30T05:19:16;21.30;66.90
22098;DHT22;11215;51.938;8.464;2022-07-30T05:21:45;21.30;67.20
22098;DHT22;11215;51.938;8.464;2022-07-30T05:24:17;21.30;67.10
22098;DHT22;11215;51.938;8.464;2022-07-30T05:26:43;21.30;67.50
22098;DHT22;11215;51.938;8.464;2022-07-30T05:29:13;21.40;67.10
22098;DHT22;11215;51.938;8.464;2022-07-30T05:31:41;21.40;67.60
22098;DHT22;11215;51.938;8.464;2022-07-30T05:34:10;21.40;67.10
22098;DHT22;11215;51.938;8.464;2022-07-30T05:36:44;21.40;67.30
22098;DHT22;11215;51.938;8.464;2022-07-30T05:39:10;21.40;67.40
22098;DHT22;11215;51.938;8.464;2022-07-30T05:41:38;21.40;66.80
22098;DHT22;11215;51.938;8.464;2022-07-30T05:44:06;21.50;67.10
22098;DHT22;11215;51.938;8.464;2022-07-30T05:46:32;21.60;67.30
22098;DHT22;11215;51.938;8.464;2022-07-30T05:49:01;21.60;67.90
22098;DHT22;11215;51.938;8.464;2022-07-30T05:51:33;21.60;67.00
22098;DHT22;11215;51.938;8.464;2022-07-30T05:53:59;21.60;67.10
22098;DHT22;11215;51.938;8.464;2022-07-30T05:56:25;21.60;67.10
22098;DHT22;11215;51.938;8.464;2022-07-30T05:58:56;21.60;67.10
22098;DHT22;11215;51.938;8.464;2022-07-30T06:01:24;21.70;67.50
22098;DHT22;11215;51.938;8.464;2022-07-30T06:03:55;21.70;67.60
22098;DHT22;11215;51.938;8.464;2022-07-30T06:06:21;21.70;67.90
22098;DHT22;11215;51.938;8.464;2022-07-30T06:08:46;21.80;68.20
22098;DHT22;11215;51.938;8.464;2022-07-30T06:11:13;21.90;68.90
22098;DHT22;11215;51.938;8.464;2022-07-30T06:13:39;22.00;69.50
22098;DHT22;11215;51.938;8.464;2022-07-30T06:16:04;22.30;69.60
22098;DHT22;11215;51.938;8.464;2022-07-30T06:18:30;22.50;69.40
22098;DHT22;11215;51.938;8.464;2022-07-30T06:20:56;22.70;69.10
22098;DHT22;11215;51.938;8.464;2022-07-30T06:23:24;22.90;68.70
22098;DHT22;11215;51.938;8.464;2022-07-30T06:25:50;23.20;67.90
22098;DHT22;11215;51.938;8.464;2022-07-30T06:28:17;23.30;67.00
22098;DHT22;11215;51.938;8.464;2022-07-30T06:30:43;23.50;66.30
22098;DHT22;11215;51.938;8.464;2022-07-30T06:33:10;23.60;65.80
22098;DHT22;11215;51.938;8.464;2022-07-30T06:35:37;23.70;65.00
22098;DHT22;11215;51.938;8.464;2022-07-30T06:38:02;23.80;64.30
22098;DHT22;11215;51.938;8.464;2022-07-30T06:40:28;23.90;64.10
22098;DHT22;11215;51.938;8.464;2022-07-30T06:42:57;23.90;63.80
22098;DHT22;11215;51.938;8.464;2022-07-30T06:45:25;23.90;63.60
22098;DHT22;11215;51.938;8.464;2022-07-30T06:48:00;23.90;64.00
22098;DHT22;11215;51.938;8.464;2022-07-30T06:50:26;24.00;63.40
22098;DHT22;11215;51.938;8.464;2022-07-30T06:52:51;23.90;63.30
22098;DHT22;11215;51.938;8.464;2022-07-30T06:55:17;23.90;63.40
22098;DHT22;11215;51.938;8.464;2022-07-30T06:57:43;24.00;63.50
22098;DHT22;11215;51.938;8.464;2022-07-30T07:00:09;24.00;63.50
22098;DHT22;11215;51.938;8.464;2022-07-30T07:02:35;24.00;63.10
22098;DHT22;11215;51.938;8.464;2022-07-30T07:05:01;24.00;63.10
22098;DHT22;11215;51.938;8.464;2022-07-30T07:07:26;24.00;62.90
22098;DHT22;11215;51.938;8.464;2022-07-30T07:09:52;24.00;62.70
22098;DHT22;11215;51.938;8.464;2022-07-30T07:12:18;24.00;62.80
22098;DHT22;11215;51.938;8.464;2022-07-30T07:14:43;24.00;62.80
22098;DHT22;11215;51.938;8.464;2022-07-30T07:17:11;23.90;62.70
22098;DHT22;11215;51.938;8.464;2022-07-30T07:19:37;24.00;63.10
22098;DHT22;11215;51.938;8.464;2022-07-30T07:22:03;24.00;63.00
22098;DHT22;11215;51.938;8.464;2022-07-30T07:24:29;24.00;63.00
22098;DHT22;11215;51.938;8.464;2022-07-30T07:26:57;24.00;63.00
22098;DHT22;11215;51.938;8.464;2022-07-30T07:29:23;24.10;62.90
22098;DHT22;11215;51.938;8.464;2022-07-30T07:31:49;24.10;62.50
22098;DHT22;11215;51.938;8.464;2022-07-30T07:34:14;24.10;62.10
22098;DHT22;11215;51.938;8.464;2022-07-30T07:36:40;24.10;61.80
22098;DHT22;11215;51.938;8.464;2022-07-30T07:39:06;24.10;61.80
22098;DHT22;11215;51.938;8.464;2022-07-30T07:41:35;24.10;61.80
22098;DHT22;11215;51.938;8.464;2022-07-30T07:44:01;24.10;62.30
22098;DHT22;11215;51.938;8.464;2022-07-30T07:46:27;24.10;62.40
22098;DHT22;11215;51.938;8.464;2022-07-30T07:48:53;24.10;62.40
22098;DHT22;11215;51.938;8.464;2022-07-30T07:51:19;24.10;62.40
22098;DHT22;11215;51.938;8.464;2022-07-30T07:53:45;24.10;62.40
22098;DHT22;11215;51.938;8.464;2022-07-30T07:56:14;24.10;62.20
22098;DHT22;11215;51.938;8.464;2022-07-30T07:58:40;24.10;62.10
22098;DHT22;11215;51.938;8.464;2022-07-30T08:01:05;24.00;61.80
22098;DHT22;11215;51.938;8.464;2022-07-30T08:03:31;24.00;61.50
22098;DHT22;11215;51.938;8.464;2022-07-30T08:06:03;24.00;61.30
22098;DHT22;11215;51.938;8.464;2022-07-30T08:08:32;24.00;61.50
22098;DHT22;11215;51.938;8.464;2022-07-30T08:11:04;23.90;61.70
22098;DHT22;11215;51.938;8.464;2022-07-30T08:13:51;23.90;61.90
22098;DHT22;11215;51.938;8.464;2022-07-30T08:16:25;23.90;62.30
22098;DHT22;11215;51.938;8.464;2022-07-30T08:19:23;24.00;62.20
22098;DHT22;11215;51.938;8.464;2022-07-30T08:21:52;24.00;61.70
22098;DHT22;11215;51.938;8.464;2022-07-30T08:24:28;24.00;61.70
22098;DHT22;11215;51.938;8.464;2022-07-30T08:26:57;24.00;61.40
22098;DHT22;11215;51.938;8.464;2022-07-30T08:29:25;24.00;61.50
22098;DHT22;11215;51.938;8.464;2022-07-30T08:32:15;24.00;61.40
22098;DHT22;11215;51.938;8.464;2022-07-30T08:35:00;24.00;61.60
22098;DHT22;11215;51.938;8.464;2022-07-30T08:37:55;24.00;61.50
22098;DHT22;11215;51.938;8.464;2022-07-30T08:40:33;24.00;60.80
22098;DHT22;11215;51.938;8.464;2022-07-30T08:43:02;24.00;61.20
22098;DHT22;11215;51.938;8.464;2022-07-30T08:45:32;24.00;61.60
22098;DHT22;11215;51.938;8.464;2022-07-30T08:48:21;24.00;61.60
22098;DHT22;11215;51.938;8.464;2022-07-30T08:51:02;24.00;60.80
22098;DHT22;11215;51.938;8.464;2022-07-30T08:56:54;24.00;61.30
22098;DHT22;11215;51.938;8.464;2022-07-30T08:59:28;24.10;60.80
22098;DHT22;11215;51.938;8.464;2022-07-30T09:02:03;24.10;60.80
22098;DHT22;11215;51.938;8.464;2022-07-30T09:05:00;24.10;60.60
22098;DHT22;11215;51.938;8.464;2022-07-30T09:07:35;24.20;60.90
22098;DHT22;11215;51.938;8.464;2022-07-30T09:10:03;24.20;61.50
22098;DHT22;11215;51.938;8.464;2022-07-30T09:12:47;24.20;61.10
22098;DHT22;11215;51.938;8.464;2022-07-30T09:15:29;24.20;59.90
22098;DHT22;11215;51.938;8.464;2022-07-30T09:18:28;24.30;60.20
22098;DHT22;11215;51.938;8.464;2022-07-30T09:21:33;24.20;60.20
22098;DHT22;11215;51.938;8.464;2022-07-30T09:30:01;24.40;60.40
22098;DHT22;11215;51.938;8.464;2022-07-30T09:36:13;24.50;59.30
22098;DHT22;11215;51.938;8.464;2022-07-30T09:39:13;24.50;59.00
22098;DHT22;11215;51.938;8.464;2022-07-30T09:42:36;24.50;59.40
22098;DHT22;11215;51.938;8.464;2022-07-30T09:54:49;24.60;59.20
22098;DHT22;11215;51.938;8.464;2022-07-30T09:58:04;24.70;59.70
22098;DHT22;11215;51.938;8.464;2022-07-30T10:00:48;24.70;59.00
22098;DHT22;11215;51.938;8.464;2022-07-30T10:03:32;24.80;58.90
22098;DHT22;11215;51.938;8.464;2022-07-30T10:06:39;24.80;58.60
22098;DHT22;11215;51.938;8.464;2022-07-30T10:09:08;24.90;58.00
22098;DHT22;11215;51.938;8.464;2022-07-30T10:11:34;25.00;58.40
22098;DHT22;11215;51.938;8.464;2022-07-30T10:14:12;25.00;58.20
22098;DHT22;11215;51.938;8.464;2022-07-30T10:16:50;25.00;58.00
22098;DHT22;11215;51.938;8.464;2022-07-30T10:19:36;25.00;57.80
22098;DHT22;11215;51.938;8.464;2022-07-30T10:22:12;25.10;57.80
22098;DHT22;11215;51.938;8.464;2022-07-30T10:24:41;25.20;57.80
22098;DHT22;11215;51.938;8.464;2022-07-30T10:27:11;25.20;57.60
22098;DHT22;11215;51.938;8.464;2022-07-30T10:29:56;25.20;57.50
22098;DHT22;11215;51.938;8.464;2022-07-30T10:32:39;25.30;57.40
22098;DHT22;11215;51.938;8.464;2022-07-30T10:35:14;25.30;57.40
22098;DHT22;11215;51.938;8.464;2022-07-30T10:38:00;25.40;57.10
22098;DHT22;11215;51.938;8.464;2022-07-30T10:41:18;25.40;56.60
22098;DHT22;11215;51.938;8.464;2022-07-30T10:43:51;25.50;56.20
22098;DHT22;11215;51.938;8.464;2022-07-30T10:49:11;25.60;56.00
22098;DHT22;11215;51.938;8.464;2022-07-30T10:51:46;25.60;56.20
22098;DHT22;11215;51.938;8.464;2022-07-30T10:54:35;25.70;55.90
22098;DHT22;11215;51.938;8.464;2022-07-30T10:57:16;25.70;55.70
22098;DHT22;11215;51.938;8.464;2022-07-30T11:02:22;25.90;55.00
22098;DHT22;11215;51.938;8.464;2022-07-30T11:04:48;25.90;55.60
22098;DHT22;11215;51.938;8.464;2022-07-30T11:09:58;26.00;54.60
22098;DHT22;11215;51.938;8.464;2022-07-30T11:15:06;26.10;54.00
22098;DHT22;11215;51.938;8.464;2022-07-30T11:20:27;26.30;54.00
22098;DHT22;11215;51.938;8.464;2022-07-30T11:22:54;26.40;54.70
22098;DHT22;11215;51.938;8.464;2022-07-30T11:27:58;26.50;54.10
22098;DHT22;11215;51.938;8.464;2022-07-30T11:35:39;26.70;51.80
22098;DHT22;11215;51.938;8.464;2022-07-30T11:38:11;26.80;53.20
22098;DHT22;11215;51.938;8.464;2022-07-30T11:43:15;26.80;51.40
22098;DHT22;11215;51.938;8.464;2022-07-30T11:45:46;26.90;52.90
22098;DHT22;11215;51.938;8.464;2022-07-30T11:48:13;27.00;53.00
22098;DHT22;11215;51.938;8.464;2022-07-30T11:50:40;27.10;52.80
22098;DHT22;11215;51.938;8.464;2022-07-30T11:53:16;27.20;52.40
22098;DHT22;11215;51.938;8.464;2022-07-30T11:55:50;27.30;51.80
22098;DHT22;11215;51.938;8.464;2022-07-30T11:58:28;27.40;52.20
22098;DHT22;11215;51.938;8.464;2022-07-30T12:00:59;27.50;50.50
22098;DHT22;11215;51.938;8.464;2022-07-30T12:03:27;27.60;51.40
22098;DHT22;11215;51.938;8.464;2022-07-30T12:05:53;27.60;51.00
22098;DHT22;11215;51.938;8.464;2022-07-30T12:08:20;27.70;51.30
22098;DHT22;11215;51.938;8.464;2022-07-30T12:10:59;27.80;51.00
22098;DHT22;11215;51.938;8.464;2022-07-30T12:13:26;27.90;50.20
22098;DHT22;11215;51.938;8.464;2022-07-30T12:15:51;27.90;50.80
22098;DHT22;11215;51.938;8.464;2022-07-30T12:18:28;27.90;50.60
22098;DHT22;11215;51.938;8.464;2022-07-30T12:21:13;27.90;49.10
22098;DHT22;11215;51.938;8.464;2022-07-30T12:23:42;28.00;48.80
22098;DHT22;11215;51.938;8.464;2022-07-30T12:26:23;28.00;49.70
22098;DHT22;11215;51.938;8.464;2022-07-30T12:28:49;28.10;48.80
22098;DHT22;11215;51.938;8.464;2022-07-30T12:31:15;28.10;49.10
22098;DHT22;11215;51.938;8.464;2022-07-30T12:33:41;28.10;49.30
22098;DHT22;11215;51.938;8.464;2022-07-30T12:36:07;28.10;49.00
22098;DHT22;11215;51.938;8.464;2022-07-30T12:38:45;28.20;48.50
22098;DHT22;11215;51.938;8.464;2022-07-30T12:41:13;28.30;48.10
22098;DHT22;11215;51.938;8.464;2022-07-30T12:43:50;28.30;48.60
22098;DHT22;11215;51.938;8.464;2022-07-30T12:46:24;28.40;47.90
22098;DHT22;11215;51.938;8.464;2022-07-30T12:48:59;28.40;47.60
22098;DHT22;11215;51.938;8.464;2022-07-30T12:51:50;28.50;47.40
22098;DHT22;11215;51.938;8.464;2022-07-30T12:54:18;28.60;47.20
22098;DHT22;11215;51.938;8.464;2022-07-30T12:57:04;28.60;47.10
22098;DHT22;11215;51.938;8.464;2022-07-30T12:59:31;28.60;46.10
22098;DHT22;11215;51.938;8.464;2022-07-30T13:01:58;28.70;47.10
22098;DHT22;11215;51.938;8.464;2022-07-30T13:04:27;28.70;47.00
22098;DHT22;11215;51.938;8.464;2022-07-30T13:07:10;28.80;46.90
22098;DHT22;11215;51.938;8.464;2022-07-30T13:09:36;28.90;45.80
22098;DHT22;11215;51.938;8.464;2022-07-30T13:12:03;28.90;46.70
22098;DHT22;11215;51.938;8.464;2022-07-30T13:14:29;28.90;46.70
22098;DHT22;11215;51.938;8.464;2022-07-30T13:16:55;28.90;46.60
22098;DHT22;11215;51.938;8.464;2022-07-30T13:19:21;29.00;46.50
22098;DHT22;11215;51.938;8.464;2022-07-30T13:21:47;29.10;46.80
22098;DHT22;11215;51.938;8.464;2022-07-30T13:24:13;29.10;46.50
22098;DHT22;11215;51.938;8.464;2022-07-30T13:26:39;29.20;46.50
22098;DHT22;11215;51.938;8.464;2022-07-30T13:29:05;29.20;46.50
22098;DHT22;11215;51.938;8.464;2022-07-30T13:31:31;29.30;46.20
22098;DHT22;11215;51.938;8.464;2022-07-30T13:33:56;29.20;45.70
22098;DHT22;11215;51.938;8.464;2022-07-30T13:36:22;29.30;45.40
22098;DHT22;11215;51.938;8.464;2022-07-30T13:38:47;29.30;45.10
22098;DHT22;11215;51.938;8.464;2022-07-30T13:41:13;29.30;44.60
22098;DHT22;11215;51.938;8.464;2022-07-30T13:43:41;29.30;44.10
22098;DHT22;11215;51.938;8.464;2022-07-30T13:46:07;29.30;43.80
22098;DHT22;11215;51.938;8.464;2022-07-30T13:48:33;29.30;43.70
22098;DHT22;11215;51.938;8.464;2022-07-30T13:51:00;29.30;44.00
22098;DHT22;11215;51.938;8.464;2022-07-30T13:53:26;29.40;44.20
22098;DHT22;11215;51.938;8.464;2022-07-30T13:55:53;29.30;44.40
22098;DHT22;11215;51.938;8.464;2022-07-30T13:58:18;29.40;44.10
22098;DHT22;11215;51.938;8.464;2022-07-30T14:00:44;29.40;44.10
22098;DHT22;11215;51.938;8.464;2022-07-30T14:03:12;29.50;44.20
22098;DHT22;11215;51.938;8.464;2022-07-30T14:05:38;29.50;44.20
22098;DHT22;11215;51.938;8.464;2022-07-30T14:08:05;29.50;44.60
22098;DHT22;11215;51.938;8.464;2022-07-30T14:10:32;29.50;43.60
22098;DHT22;11215;51.938;8.464;2022-07-30T14:12:59;29.60;43.50
22098;DHT22;11215;51.938;8.464;2022-07-30T14:15:26;29.60;44.00
22098;DHT22;11215;51.938;8.464;2022-07-30T14:17:53;29.60;43.50
22098;DHT22;11215;51.938;8.464;2022-07-30T14:20:19;29.60;42.60
22098;DHT22;11215;51.938;8.464;2022-07-30T14:22:44;29.60;42.80
22098;DHT22;11215;51.938;8.464;2022-07-30T14:25:10;29.50;42.90
22098;DHT22;11215;51.938;8.464;2022-07-30T14:27:37;29.50;43.00
22098;DHT22;11215;51.938;8.464;2022-07-30T14:30:05;29.50;43.00
22098;DHT22;11215;51.938;8.464;2022-07-30T14:32:31;29.50;42.80
22098;DHT22;11215;51.938;8.464;2022-07-30T14:34:57;29.50;43.00
22098;DHT22;11215;51.938;8.464;2022-07-30T14:37:23;29.50;42.40
22098;DHT22;11215;51.938;8.464;2022-07-30T14:39:48;29.50;42.50
22098;DHT22;11215;51.938;8.464;2022-07-30T14:42:14;29.50;42.20
22098;DHT22;11215;51.938;8.464;2022-07-30T14:44:40;29.60;41.90
22098;DHT22;11215;51.938;8.464;2022-07-30T14:47:06;29.60;42.10
22098;DHT22;11215;51.938;8.464;2022-07-30T14:49:32;29.60;41.80
22098;DHT22;11215;51.938;8.464;2022-07-30T14:51:57;29.60;41.90
22098;DHT22;11215;51.938;8.464;2022-07-30T14:54:23;29.60;41.70
22098;DHT22;11215;51.938;8.464;2022-07-30T14:56:49;29.60;41.20
22098;DHT22;11215;51.938;8.464;2022-07-30T14:59:14;29.60;41.70
22098;DHT22;11215;51.938;8.464;2022-07-30T15:01:41;29.60;41.70
22098;DHT22;11215;51.938;8.464;2022-07-30T15:04:08;29.70;42.20
22098;DHT22;11215;51.938;8.464;2022-07-30T15:06:35;29.70;41.60
22098;DHT22;11215;51.938;8.464;2022-07-30T15:09:01;29.70;41.60
22098;DHT22;11215;51.938;8.464;2022-07-30T15:11:27;29.70;41.40
22098;DHT22;11215;51.938;8.464;2022-07-30T15:13:53;29.70;41.40
22098;DHT22;11215;51.938;8.464;2022-07-30T15:16:18;29.70;41.10
22098;DHT22;11215;51.938;8.464;2022-07-30T15:18:44;29.70;40.90
22098;DHT22;11215;51.938;8.464;2022-07-30T15:21:10;29.80;41.00
22098;DHT22;11215;51.938;8.464;2022-07-30T15:23:37;29.70;41.00
22098;DHT22;11215;51.938;8.464;2022-07-30T15:26:03;29.80;40.60
22098;DHT22;11215;51.938;8.464;2022-07-30T15:28:29;29.70;40.60
22098;DHT22;11215;51.938;8.464;2022-07-30T15:30:54;29.70;40.90
22098;DHT22;11215;51.938;8.464;2022-07-30T15:33:20;29.80;40.70
22098;DHT22;11215;51.938;8.464;2022-07-30T15:35:46;29.80;40.70
22098;DHT22;11215;51.938;8.464;2022-07-30T15:38:12;29.80;40.70
22098;DHT22;11215;51.938;8.464;2022-07-30T15:40:38;29.80;40.30
22098;DHT22;11215;51.938;8.464;2022-07-30T15:43:03;29.80;40.20
22098;DHT22;11215;51.938;8.464;2022-07-30T15:45:29;29.70;40.50
22098;DHT22;11215;51.938;8.464;2022-07-30T15:47:55;29.70;40.60
22098;DHT22;11215;51.938;8.464;2022-07-30T15:50:21;29.70;40.40
22098;DHT22;11215;51.938;8.464;2022-07-30T15:52:48;29.70;40.10
22098;DHT22;11215;51.938;8.464;2022-07-30T15:55:13;29.70;40.00
22098;DHT22;11215;51.938;8.464;2022-07-30T15:57:39;29.70;40.00
22098;DHT22;11215;51.938;8.464;2022-07-30T16:00:06;29.70;40.10
22098;DHT22;11215;51.938;8.464;2022-07-30T16:02:33;29.70;39.90
22098;DHT22;11215;51.938;8.464;2022-07-30T16:04:59;29.60;40.00
22098;DHT22;11215;51.938;8.464;2022-07-30T16:07:24;29.60;40.00
22098;DHT22;11215;51.938;8.464;2022-07-30T16:09:50;29.60;40.10
22098;DHT22;11215;51.938;8.464;2022-07-30T16:12:16;29.50;39.80
22098;DHT22;11215;51.938;8.464;2022-07-30T16:14:41;29.50;39.90
22098;DHT22;11215;51.938;8.464;2022-07-30T16:17:07;29.50;39.80
22098;DHT22;11215;51.938;8.464;2022-07-30T16:19:36;29.50;39.90
22098;DHT22;11215;51.938;8.464;2022-07-30T16:22:01;29.50;39.60
22098;DHT22;11215;51.938;8.464;2022-07-30T16:24:27;29.50;39.70
22098;DHT22;11215;51.938;8.464;2022-07-30T16:26:53;29.50;39.80
22098;DHT22;11215;51.938;8.464;2022-07-30T16:29:18;29.50;39.70
22098;DHT22;11215;51.938;8.464;2022-07-30T16:31:45;29.50;39.70
22098;DHT22;11215;51.938;8.464;2022-07-30T16:34:10;29.50;39.80
22098;DHT22;11215;51.938;8.464;2022-07-30T16:36:36;29.50;39.80
22098;DHT22;11215;51.938;8.464;2022-07-30T16:39:03;29.50;40.10
22098;DHT22;11215;51.938;8.464;2022-07-30T16:41:28;29.50;39.80
22098;DHT22;11215;51.938;8.464;2022-07-30T16:43:54;29.50;40.70